Time;durP1;ratioP1;P1;durP2;ratioP2;P2;SDS_P1;SDS_P2;PMS_P1;PMS_P2;Temp;Humidity;BMP_temperature;BMP_pressure;BME280_temperature;BME280_humidity;BME280_pressure;Samples;Min_cycle;Max_cycle;Signal;HPM_P1;HPM_P2
2023/07/08 00:02:12;;;;;;;31.80;6.73;;;30.00;46.40;;;;;;5045198;28;20743;-69
2023/07/08 00:04:39;;;;;;;35.00;7.80;;;30.00;46.40;;;;;;5039085;28;20200;-69
2023/07/08 00:07:10;;;;;;;23.60;6.30;;;30.00;46.50;;;;;;5046599;28;20216;-68
2023/07/08 00:09:38;;;;;;;37.57;8.03;;;30.00;46.50;;;;;;5047219;28;20204;-68
2023/07/08 00:12:09;;;;;;;32.43;7.23;;;29.90;46.40;;;;;;5039589;28;20200;-70
2023/07/08 00:14:36;;;;;;;41.03;8.30;;;29.90;46.40;;;;;;5035787;28;20218;-69
2023/07/08 00:17:03;;;;;;;36.37;7.53;;;29.90;46.40;;;;;;5044148;28;20200;-68
2023/07/08 00:19:29;;;;;;;31.00;7.27;;;29.90;46.40;;;;;;5045135;28;20234;-73
2023/07/08 00:21:56;;;;;;;23.83;6.70;;;29.90;46.50;;;;;;5047290;28;20204;-69
2023/07/08 00:24:23;;;;;;;28.07;7.20;;;29.90;46.50;;;;;;5045624;28;20207;-69
2023/07/08 00:26:51;;;;;;;30.87;7.50;;;29.90;46.50;;;;;;5040574;28;20205;-68
2023/07/08 00:29:18;;;;;;;36.07;7.47;;;29.90;46.50;;;;;;5042415;28;20204;-68
2023/07/08 00:31:45;;;;;;;31.13;7.27;;;29.80;46.50;;;;;;5046927;28;20234;-68
2023/07/08 00:34:12;;;;;;;38.67;8.10;;;29.90;46.60;;;;;;5045381;28;20196;-73
2023/07/08 00:36:39;;;;;;;43.03;8.57;;;29.90;46.60;;;;;;5025216;28;20220;-69
2023/07/08 00:39:14;;;;;;;34.00;7.37;;;29.80;46.50;;;;;;5045889;28;20659;-69
2023/07/08 00:41:43;;;;;;;48.77;9.27;;;29.80;46.50;;;;;;5028795;28;20193;-69
2023/07/08 00:44:13;;;;;;;30.50;7.23;;;29.80;46.60;;;;;;5043973;28;20299;-68
2023/07/08 00:46:51;;;;;;;31.43;7.23;;;29.80;46.60;;;;;;5045381;28;20664;-68
2023/07/08 00:49:38;;;;;;;23.83;7.00;;;29.80;46.60;;;;;;5041896;28;20211;-68
2023/07/08 00:52:23;;;;;;;33.90;7.40;;;29.80;46.60;;;;;;5046661;28;20238;-67
2023/07/08 00:54:51;;;;;;;52.63;9.27;;;29.80;46.60;;;;;;5046514;28;20219;-67
2023/07/08 00:57:18;;;;;;;46.00;8.57;;;29.80;46.60;;;;;;5042241;28;20211;-68
2023/07/08 00:59:51;;;;;;;30.93;7.50;;;29.80;46.60;;;;;;5038756;28;20197;-70
2023/07/08 01:02:21;;;;;;;28.73;7.40;;;29.70;46.60;;;;;;5046588;28;20200;-69
2023/07/08 01:04:54;;;;;;;25.70;6.80;;;29.80;46.70;;;;;;5047364;28;20200;-69
2023/07/08 01:07:22;;;;;;;32.13;7.50;;;29.80;46.70;;;;;;5042016;28;20277;-68
2023/07/08 01:09:53;;;;;;;21.23;6.40;;;29.70;46.70;;;;;;5025259;28;20212;-69
2023/07/08 01:12:24;;;;;;;38.93;8.33;;;29.80;46.70;;;;;;5033890;28;20257;-69
2023/07/08 01:14:54;;;;;;;29.17;7.40;;;29.70;46.70;;;;;;5044437;28;20211;-69
2023/07/08 01:17:22;;;;;;;37.47;8.00;;;29.70;46.70;;;;;;5045236;28;20196;-68
2023/07/08 01:19:51;;;;;;;34.87;7.47;;;29.70;46.70;;;;;;5037647;28;20207;-69
2023/07/08 01:22:20;;;;;;;34.70;7.47;;;29.70;46.70;;;;;;5044705;28;20208;-69
2023/07/08 01:24:47;;;;;;;24.47;6.53;;;29.60;46.60;;;;;;5047773;28;20188;-68
2023/07/08 01:27:17;;;;;;;33.07;7.63;;;29.70;46.70;;;;;;5043318;28;20200;-68
2023/07/08 01:29:46;;;;;;;23.57;6.40;;;29.60;46.60;;;;;;5043019;28;20204;-67
2023/07/08 01:32:17;;;;;;;56.60;9.40;;;29.60;46.60;;;;;;5039964;28;20289;-68
2023/07/08 01:34:59;;;;;;;32.33;7.40;;;29.60;46.60;;;;;;5040444;28;20200;-69
2023/07/08 01:37:30;;;;;;;42.07;8.50;;;29.60;46.60;;;;;;5044998;28;20623;-69
2023/07/08 01:39:57;;;;;;;33.30;7.60;;;29.60;46.60;;;;;;5047014;28;20234;-68
2023/07/08 01:42:24;;;;;;;47.07;8.90;;;29.60;46.60;;;;;;5030066;28;20196;-68
2023/07/08 01:44:52;;;;;;;45.53;8.77;;;29.60;46.60;;;;;;5045825;28;20204;-69
2023/07/08 01:47:22;;;;;;;38.37;7.97;;;29.60;46.70;;;;;;5045405;28;20200;-71
2023/07/08 01:49:49;;;;;;;38.83;8.27;;;29.60;46.70;;;;;;5036293;28;20200;-69
2023/07/08 01:52:19;;;;;;;41.13;8.33;;;29.60;46.70;;;;;;5034789;28;20232;-72
2023/07/08 01:54:56;;;;;;;37.53;7.90;;;29.60;46.70;;;;;;5045076;28;20216;-68
2023/07/08 01:57:23;;;;;;;42.03;8.67;;;29.60;46.70;;;;;;5046261;28;20284;-68
2023/07/08 01:59:50;;;;;;;31.00;7.30;;;29.50;46.70;;;;;;5046974;28;20211;-68
2023/07/08 02:02:17;;;;;;;47.17;9.23;;;29.50;46.70;;;;;;5044591;28;20200;-69
2023/07/08 02:04:44;;;;;;;28.80;7.00;;;29.50;46.70;;;;;;5042152;28;20282;-69
2023/07/08 02:07:11;;;;;;;30.67;7.33;;;29.50;46.70;;;;;;5045783;28;20683;-69
2023/07/08 02:09:37;;;;;;;29.23;7.27;;;29.50;46.70;;;;;;5028521;28;20288;-73
2023/07/08 02:12:06;;;;;;;21.57;6.67;;;29.50;46.70;;;;;;5034541;28;20230;-70
2023/07/08 02:14:33;;;;;;;41.07;8.20;;;29.50;46.70;;;;;;5037419;28;20227;-69
2023/07/08 02:17:00;;;;;;;30.43;7.43;;;29.50;46.80;;;;;;5049669;28;20210;-69
2023/07/08 02:19:27;;;;;;;35.07;7.47;;;29.50;46.80;;;;;;5047091;28;20204;-70
2023/07/08 02:21:54;;;;;;;37.63;7.77;;;29.40;46.70;;;;;;5050681;28;20211;-70
2023/07/08 02:24:22;;;;;;;32.63;7.57;;;29.40;46.70;;;;;;5044756;28;20202;-69
2023/07/08 02:26:49;;;;;;;24.10;6.53;;;29.40;46.70;;;;;;5048665;28;20277;-70
2023/07/08 02:29:18;;;;;;;20.97;6.57;;;29.40;46.70;;;;;;5023629;28;20212;-70
2023/07/08 02:31:44;;;;;;;26.20;6.90;;;29.40;46.80;;;;;;5026586;28;20234;-70
2023/07/08 02:34:11;;;;;;;28.33;6.97;;;29.40;46.80;;;;;;5019998;28;20202;-69
2023/07/08 02:36:38;;;;;;;27.70;6.97;;;29.40;46.80;;;;;;5009971;28;20297;-70
2023/07/08 02:39:05;;;;;;;25.77;7.00;;;29.40;46.80;;;;;;5030153;28;20200;-70
2023/07/08 02:41:32;;;;;;;26.27;6.90;;;29.40;46.80;;;;;;5050186;28;20606;-70
2023/07/08 02:44:00;;;;;;;33.03;7.80;;;29.40;46.80;;;;;;5050111;28;20201;-70
2023/07/08 02:46:28;;;;;;;23.33;6.90;;;29.40;46.80;;;;;;5036760;28;20201;-71
2023/07/08 02:48:55;;;;;;;27.13;6.93;;;29.40;46.80;;;;;;5030658;28;20204;-70
2023/07/08 02:51:22;;;;;;;27.70;7.03;;;29.40;46.80;;;;;;5030020;28;20223;-70
2023/07/08 02:53:51;;;;;;;40.20;8.33;;;29.40;46.80;;;;;;5031692;28;20209;-70
2023/07/08 02:56:18;;;;;;;29.50;7.37;;;29.30;46.80;;;;;;5043427;28;20201;-70
2023/07/08 02:58:45;;;;;;;28.17;7.47;;;29.30;46.80;;;;;;5047367;28;20287;-70
2023/07/08 03:01:11;;;;;;;29.70;7.07;;;29.30;46.80;;;;;;5048265;28;20218;-70
2023/07/08 03:03:40;;;;;;;26.97;7.33;;;29.30;46.80;;;;;;5048801;28;20200;-69
2023/07/08 03:06:07;;;;;;;35.53;7.80;;;29.30;46.80;;;;;;5026302;28;20205;-69
2023/07/08 03:08:33;;;;;;;25.97;6.70;;;29.30;46.80;;;;;;5043910;28;20196;-69
2023/07/08 03:11:03;;;;;;;27.40;6.73;;;29.30;46.80;;;;;;5039821;28;20239;-69
2023/07/08 03:13:31;;;;;;;30.60;7.47;;;29.30;46.80;;;;;;5041492;28;20240;-70
2023/07/08 03:15:58;;;;;;;24.10;6.43;;;29.30;46.90;;;;;;5027204;28;20214;-69
2023/07/08 03:18:26;;;;;;;27.57;6.97;;;29.30;46.90;;;;;;5050079;28;20208;-69
2023/07/08 03:20:55;;;;;;;23.33;6.23;;;29.30;46.90;;;;;;5039733;28;20246;-69
2023/07/08 03:23:23;;;;;;;28.33;7.03;;;29.30;46.90;;;;;;5050173;28;20250;-71
2023/07/08 03:25:50;;;;;;;23.03;6.50;;;29.30;46.90;;;;;;5049476;28;20200;-70
2023/07/08 03:28:17;;;;;;;25.27;6.40;;;29.20;46.90;;;;;;5049692;28;20299;-70
2023/07/08 03:30:45;;;;;;;28.13;7.10;;;29.20;46.90;;;;;;5049064;28;20235;-70
2023/07/08 03:33:13;;;;;;;34.80;7.40;;;29.20;46.90;;;;;;5032744;28;20213;-70
2023/07/08 03:35:40;;;;;;;22.27;6.37;;;29.20;46.90;;;;;;5030519;28;20274;-70
2023/07/08 03:38:08;;;;;;;40.50;7.90;;;29.20;46.90;;;;;;5049181;28;20216;-70
2023/07/08 03:40:35;;;;;;;21.47;6.57;;;29.20;46.90;;;;;;5032013;28;20193;-70
2023/07/08 03:43:01;;;;;;;22.70;6.57;;;29.20;46.90;;;;;;5029140;28;20219;-71
2023/07/08 03:45:28;;;;;;;30.87;7.63;;;29.20;47.00;;;;;;5023695;28;20216;-71
2023/07/08 03:47:55;;;;;;;27.27;6.90;;;29.10;46.90;;;;;;5020253;28;20564;-70
2023/07/08 03:50:25;;;;;;;31.33;7.23;;;29.10;46.90;;;;;;5037226;28;20211;-70
2023/07/08 03:52:54;;;;;;;22.00;6.83;;;29.10;47.00;;;;;;5031308;28;20220;-70
2023/07/08 03:55:23;;;;;;;38.00;7.90;;;29.10;46.90;;;;;;5029311;28;20212;-70
2023/07/08 03:57:49;;;;;;;29.47;6.87;;;29.10;47.00;;;;;;5015232;28;20895;-71
2023/07/08 04:00:17;;;;;;;27.10;7.23;;;29.10;47.00;;;;;;5009038;28;20201;-69
2023/07/08 04:02:45;;;;;;;30.93;7.23;;;29.10;47.00;;;;;;5009214;28;20564;-70
2023/07/08 04:05:14;;;;;;;27.13;7.13;;;29.10;47.00;;;;;;5035282;28;20209;-70
2023/07/08 04:07:41;;;;;;;38.37;8.40;;;29.10;47.00;;;;;;5042521;28;20225;-69
2023/07/08 04:10:09;;;;;;;26.57;6.90;;;29.10;47.00;;;;;;5044058;28;20262;-70
2023/07/08 04:12:38;;;;;;;27.77;7.23;;;29.00;47.00;;;;;;5044801;28;20226;-71
2023/07/08 04:15:06;;;;;;;31.20;7.63;;;29.10;47.00;;;;;;5044703;28;20919;-69
2023/07/08 04:17:33;;;;;;;38.73;7.87;;;29.10;47.10;;;;;;5045845;28;20201;-69
2023/07/08 04:20:03;;;;;;;21.87;6.17;;;29.00;47.00;;;;;;5015625;28;20192;-70
2023/07/08 04:22:30;;;;;;;30.10;7.10;;;29.00;47.00;;;;;;5046811;28;20196;-70
2023/07/08 04:24:57;;;;;;;20.67;6.77;;;29.00;47.00;;;;;;5046066;28;20305;-70
2023/07/08 04:27:24;;;;;;;26.57;7.23;;;29.00;47.00;;;;;;5046750;28;20200;-70
2023/07/08 04:29:52;;;;;;;42.23;8.47;;;29.00;47.10;;;;;;5035553;28;20211;-70
2023/07/08 04:32:19;;;;;;;43.90;8.93;;;29.00;47.00;;;;;;5046890;28;20594;-69
2023/07/08 04:34:46;;;;;;;49.77;9.23;;;29.00;47.00;;;;;;5016772;28;20209;-69
2023/07/08 04:37:13;;;;;;;21.50;6.30;;;29.00;47.10;;;;;;5048420;28;20204;-70
2023/07/08 04:39:40;;;;;;;27.70;6.97;;;29.00;47.10;;;;;;5040442;28;20660;-70
2023/07/08 04:42:07;;;;;;;34.87;7.60;;;29.00;47.10;;;;;;5028724;28;20211;-71
2023/07/08 04:44:34;;;;;;;37.70;7.67;;;29.00;47.00;;;;;;5028951;28;20209;-71
2023/07/08 04:47:02;;;;;;;35.10;7.87;;;29.00;47.10;;;;;;5031690;28;20196;-71
2023/07/08 04:49:33;;;;;;;22.30;6.53;;;29.00;47.00;;;;;;5019102;28;20224;-69
2023/07/08 04:52:01;;;;;;;26.17;6.27;;;28.90;47.00;;;;;;5008903;28;20235;-67
2023/07/08 04:54:28;;;;;;;32.47;7.23;;;28.90;47.00;;;;;;5034236;28;20628;-67
2023/07/08 04:56:55;;;;;;;18.27;6.07;;;28.90;47.00;;;;;;5048627;28;20188;-69
2023/07/08 04:59:26;;;;;;;22.73;6.07;;;28.90;46.90;;;;;;5048102;28;20207;-68
2023/07/08 05:01:53;;;;;;;24.63;6.00;;;28.90;47.00;;;;;;5040008;28;20196;-67
2023/07/08 05:04:23;;;;;;;30.37;7.70;;;28.90;47.00;;;;;;5034339;28;20205;-70
2023/07/08 05:06:50;;;;;;;25.67;6.43;;;28.90;47.00;;;;;;5036672;28;20180;-70
2023/07/08 05:09:17;;;;;;;25.63;6.83;;;28.90;47.10;;;;;;5048024;28;20204;-70
2023/07/08 05:11:45;;;;;;;28.17;6.97;;;28.90;47.00;;;;;;5039372;28;20212;-69
2023/07/08 05:14:13;;;;;;;34.07;7.47;;;28.80;47.00;;;;;;5029367;28;20898;-68
2023/07/08 05:16:40;;;;;;;26.60;7.23;;;28.90;47.10;;;;;;5045320;28;20679;-69
2023/07/08 05:19:07;;;;;;;27.87;7.43;;;28.90;47.10;;;;;;5043676;28;20196;-72
2023/07/08 05:21:35;;;;;;;37.50;7.57;;;28.90;47.10;;;;;;5046316;28;20248;-68
2023/07/08 05:24:03;;;;;;;21.53;5.90;;;28.90;47.20;;;;;;5030476;28;20208;-68
2023/07/08 05:26:30;;;;;;;25.83;6.83;;;28.90;47.10;;;;;;5022992;28;20205;-68
2023/07/08 05:28:57;;;;;;;23.93;6.73;;;28.90;47.10;;;;;;5032802;28;20236;-68
2023/07/08 05:31:24;;;;;;;27.10;6.50;;;28.90;47.20;;;;;;5047531;28;20200;-69
2023/07/08 05:33:50;;;;;;;26.73;6.80;;;28.90;47.20;;;;;;5034097;28;20205;-68
2023/07/08 05:36:17;;;;;;;24.00;6.43;;;28.80;47.10;;;;;;5027764;28;20218;-68
2023/07/08 05:38:45;;;;;;;28.03;7.00;;;28.90;47.20;;;;;;5027652;28;20208;-69
2023/07/08 05:41:13;;;;;;;25.23;6.77;;;28.90;47.20;;;;;;5033762;28;21138;-68
2023/07/08 05:43:39;;;;;;;27.30;7.00;;;28.80;47.20;;;;;;5021700;28;20209;-68
2023/07/08 05:46:06;;;;;;;44.33;8.53;;;28.90;47.20;;;;;;5036681;28;20205;-70
2023/07/08 05:48:33;;;;;;;25.77;7.20;;;28.90;47.20;;;;;;5047371;28;20196;-68
2023/07/08 05:51:00;;;;;;;26.33;7.17;;;28.90;47.20;;;;;;5051016;28;20215;-69
2023/07/08 05:53:27;;;;;;;22.43;6.37;;;28.90;47.20;;;;;;5051558;28;20597;-68
2023/07/08 05:55:55;;;;;;;36.70;7.97;;;28.90;47.20;;;;;;5050936;28;20193;-71
2023/07/08 05:58:22;;;;;;;29.33;7.23;;;28.90;47.20;;;;;;5044907;28;20200;-68
2023/07/08 06:00:56;;;;;;;25.63;6.70;;;28.90;47.20;;;;;;5050802;28;20559;-68
2023/07/08 06:03:23;;;;;;;28.00;6.83;;;28.90;47.30;;;;;;5039091;28;20235;-68
2023/07/08 06:05:50;;;;;;;49.27;9.17;;;29.00;47.30;;;;;;5027114;28;20197;-69
2023/07/08 06:08:17;;;;;;;25.83;6.70;;;29.00;47.30;;;;;;5047844;28;20212;-68
2023/07/08 06:10:44;;;;;;;26.30;6.97;;;28.90;47.20;;;;;;5049635;28;20725;-68
2023/07/08 06:13:13;;;;;;;28.67;6.80;;;28.90;47.20;;;;;;5047518;28;20231;-68
2023/07/08 06:15:40;;;;;;;28.87;7.17;;;29.00;47.40;;;;;;5044620;28;20196;-70
2023/07/08 06:18:07;;;;;;;32.03;7.40;;;29.00;47.40;;;;;;5051325;28;20204;-68
2023/07/08 06:20:34;;;;;;;32.07;7.53;;;29.00;47.30;;;;;;5050917;28;20203;-70
2023/07/08 06:23:01;;;;;;;24.77;6.60;;;29.00;47.40;;;;;;5051221;28;20682;-71
2023/07/08 06:25:28;;;;;;;26.43;7.23;;;29.00;47.40;;;;;;5039936;28;20282;-69
2023/07/08 06:27:55;;;;;;;25.13;6.80;;;29.00;47.40;;;;;;5049581;28;20207;-68
2023/07/08 06:30:24;;;;;;;23.13;6.90;;;29.00;47.40;;;;;;5050532;28;20311;-68
2023/07/08 06:32:51;;;;;;;27.77;6.87;;;29.00;47.40;;;;;;5047121;28;20606;-70
2023/07/08 06:35:17;;;;;;;28.93;7.17;;;29.00;47.40;;;;;;5050526;28;20196;-69
2023/07/08 06:37:44;;;;;;;25.60;6.60;;;29.00;47.40;;;;;;5050348;28;20684;-68
2023/07/08 06:40:12;;;;;;;29.00;6.97;;;29.00;47.40;;;;;;5047031;28;20927;-68
2023/07/08 06:42:39;;;;;;;24.80;6.63;;;29.00;47.40;;;;;;5047187;28;20200;-68
2023/07/08 06:45:07;;;;;;;25.73;6.93;;;29.00;47.40;;;;;;5047258;28;20204;-68
2023/07/08 06:47:35;;;;;;;26.57;6.83;;;29.10;47.50;;;;;;5050788;28;20283;-71
2023/07/08 06:50:03;;;;;;;38.90;8.40;;;29.10;47.50;;;;;;5027358;28;20205;-69
2023/07/08 06:52:33;;;;;;;33.53;7.47;;;29.00;47.50;;;;;;5029796;28;20225;-69
2023/07/08 06:55:00;;;;;;;18.87;6.20;;;29.00;47.50;;;;;;5050520;28;20211;-70
2023/07/08 06:57:27;;;;;;;42.87;8.57;;;29.10;47.50;;;;;;5027638;28;20201;-70
2023/07/08 06:59:54;;;;;;;25.43;6.97;;;29.10;47.50;;;;;;5049985;28;20204;-70
2023/07/08 07:02:21;;;;;;;33.63;7.87;;;29.10;47.50;;;;;;5031022;28;20240;-71
2023/07/08 07:04:49;;;;;;;20.83;6.30;;;29.10;47.50;;;;;;5030053;28;20732;-70
2023/07/08 07:07:16;;;;;;;34.90;7.77;;;29.10;47.60;;;;;;5029702;28;20680;-69
2023/07/08 07:09:43;;;;;;;24.53;6.83;;;29.20;47.60;;;;;;5035805;28;20204;-69
2023/07/08 07:12:10;;;;;;;22.80;6.30;;;29.20;47.70;;;;;;5049553;28;20710;-72
2023/07/08 07:14:37;;;;;;;33.03;7.13;;;29.20;47.70;;;;;;5046729;28;20719;-69
2023/07/08 07:17:04;;;;;;;21.33;6.30;;;29.20;47.70;;;;;;5028812;28;20209;-67
2023/07/08 07:19:31;;;;;;;28.33;7.57;;;29.20;47.80;;;;;;5020381;28;20198;-69
2023/07/08 07:21:59;;;;;;;23.77;7.03;;;29.30;47.90;;;;;;5017475;28;20653;-69
2023/07/08 07:24:26;;;;;;;42.33;8.37;;;29.20;47.80;;;;;;5012609;28;20194;-67
2023/07/08 07:26:53;;;;;;;32.97;7.37;;;29.30;47.80;;;;;;5040095;28;20215;-67
2023/07/08 07:29:23;;;;;;;28.17;7.00;;;29.30;47.90;;;;;;5049853;28;20200;-76
2023/07/08 07:31:51;;;;;;;35.77;8.03;;;29.30;47.80;;;;;;5041676;28;20206;-71
2023/07/08 07:34:17;;;;;;;30.77;7.17;;;29.30;47.80;;;;;;5048435;28;20204;-71
2023/07/08 07:36:44;;;;;;;32.35;7.47;;;29.40;47.90;;;;;;5024402;28;20450;-72
2023/07/08 07:39:12;;;;;;;30.20;7.70;;;29.30;48.20;;;;;;5045852;28;20299;-71
2023/07/08 07:41:39;;;;;;;31.37;7.23;;;29.40;48.10;;;;;;5049432;28;20659;-70
2023/07/08 07:44:06;;;;;;;25.33;7.17;;;29.40;48.10;;;;;;5049544;28;20422;-71
2023/07/08 07:46:33;;;;;;;24.90;6.97;;;29.40;47.90;;;;;;5049178;28;20207;-72
2023/07/08 07:49:00;;;;;;;32.17;7.97;;;29.50;48.00;;;;;;5049288;28;20236;-76
2023/07/08 07:51:26;;;;;;;30.53;7.43;;;29.50;47.90;;;;;;5048948;28;20682;-71
2023/07/08 07:53:54;;;;;;;25.67;7.00;;;29.50;47.80;;;;;;5048978;28;20778;-70
2023/07/08 07:56:22;;;;;;;33.33;7.30;;;29.50;47.80;;;;;;5048484;28;20204;-70
2023/07/08 07:58:49;;;;;;;43.97;8.57;;;29.50;47.70;;;;;;5036160;28;20660;-67
2023/07/08 08:01:16;;;;;;;37.00;7.77;;;29.50;47.70;;;;;;5034931;28;20620;-70
2023/07/08 08:03:43;;;;;;;20.03;6.47;;;29.60;47.80;;;;;;5020043;28;20669;-67
2023/07/08 08:06:10;;;;;;;27.50;6.90;;;29.60;47.80;;;;;;5040789;28;20200;-72
2023/07/08 08:08:36;;;;;;;26.37;6.80;;;29.60;48.40;;;;;;5041182;28;20212;-70
2023/07/08 08:11:06;;;;;;;40.20;8.03;;;29.50;48.00;;;;;;5026651;28;20193;-70
2023/07/08 08:13:34;;;;;;;29.97;7.53;;;29.60;48.00;;;;;;5047956;28;20596;-72
2023/07/08 08:16:02;;;;;;;36.37;8.13;;;29.60;47.90;;;;;;5035988;28;20202;-69
2023/07/08 08:18:29;;;;;;;30.27;7.20;;;29.60;47.90;;;;;;5043733;28;20200;-69
2023/07/08 08:20:57;;;;;;;33.40;7.97;;;29.60;47.90;;;;;;5047978;28;20208;-73
2023/07/08 08:23:24;;;;;;;29.20;7.20;;;29.60;47.90;;;;;;5047779;28;20200;-69
2023/07/08 08:25:51;;;;;;;23.00;7.03;;;29.60;47.90;;;;;;5047791;28;20664;-69
2023/07/08 08:28:18;;;;;;;27.50;6.77;;;29.60;47.90;;;;;;5048260;28;20196;-69
2023/07/08 08:30:50;;;;;;;29.80;7.30;;;29.60;47.90;;;;;;5045454;28;20196;-71
2023/07/08 08:33:17;;;;;;;36.10;8.00;;;29.60;47.90;;;;;;5048058;28;20228;-70
2023/07/08 08:35:44;;;;;;;38.60;7.93;;;29.60;47.90;;;;;;5048314;28;20255;-71
2023/07/08 08:38:11;;;;;;;25.37;6.80;;;29.60;47.90;;;;;;5048456;28;20204;-70
2023/07/08 08:40:41;;;;;;;26.60;6.90;;;29.60;47.90;;;;;;5047866;28;20200;-70
2023/07/08 08:43:13;;;;;;;27.13;6.90;;;29.60;47.90;;;;;;5048217;28;20208;-70
2023/07/08 08:45:47;;;;;;;29.20;7.20;;;29.60;47.90;;;;;;5044836;28;20204;-69
2023/07/08 08:48:19;;;;;;;36.37;7.77;;;29.60;48.00;;;;;;5044147;28;20202;-69
2023/07/08 08:50:53;;;;;;;32.83;7.47;;;29.60;48.00;;;;;;5048083;28;20208;-70
2023/07/08 08:53:21;;;;;;;36.20;7.43;;;29.60;48.00;;;;;;5048207;28;20577;-70
2023/07/08 08:55:55;;;;;;;31.53;7.17;;;29.60;47.90;;;;;;5048408;28;20203;-70
2023/07/08 08:58:32;;;;;;;33.17;7.93;;;29.60;48.00;;;;;;5042790;28;20201;-70
2023/07/08 09:01:01;;;;;;;27.10;6.70;;;29.60;48.00;;;;;;5028171;28;20211;-70
2023/07/08 09:03:43;;;;;;;21.53;6.30;;;29.70;48.00;;;;;;5033949;28;20204;-70
2023/07/08 09:06:16;;;;;;;28.57;7.20;;;29.60;48.00;;;;;;5047934;28;20227;-73
2023/07/08 09:08:43;;;;;;;28.47;7.00;;;29.60;48.00;;;;;;5047467;28;20207;-71
2023/07/08 09:11:28;;;;;;;30.70;7.03;;;29.70;48.00;;;;;;5047908;28;20287;-70
2023/07/08 09:13:55;;;;;;;27.00;6.80;;;29.60;48.00;;;;;;5047955;28;20231;-70
2023/07/08 09:16:39;;;;;;;27.67;6.47;;;29.70;48.10;;;;;;5047757;28;20192;-70
2023/07/08 09:19:11;;;;;;;29.10;6.60;;;29.70;48.10;;;;;;5047557;28;20208;-70
2023/07/08 09:21:45;;;;;;;23.60;6.63;;;29.70;48.10;;;;;;5047967;28;20637;-69
2023/07/08 09:24:18;;;;;;;32.50;7.53;;;29.70;48.10;;;;;;5048428;28;20199;-70
2023/07/08 09:26:47;;;;;;;24.17;6.57;;;29.70;48.10;;;;;;5052308;28;20296;-69
2023/07/08 09:29:13;;;;;;;32.97;7.17;;;29.70;48.10;;;;;;5048756;28;20200;-69
2023/07/08 09:31:42;;;;;;;28.97;7.33;;;29.70;48.10;;;;;;5052005;28;20207;-70
2023/07/08 09:34:12;;;;;;;24.87;6.27;;;29.70;48.10;;;;;;5051848;28;20231;-71
2023/07/08 09:36:42;;;;;;;31.20;6.63;;;29.70;48.10;;;;;;5051489;28;20207;-69
2023/07/08 09:39:12;;;;;;;26.33;7.03;;;29.70;48.10;;;;;;5051219;28;20235;-71
2023/07/08 09:41:40;;;;;;;27.00;6.73;;;29.80;48.10;;;;;;5051504;28;20196;-71
2023/07/08 09:44:15;;;;;;;35.33;7.73;;;29.80;48.10;;;;;;5051282;28;20246;-70
2023/07/08 09:46:42;;;;;;;28.47;7.03;;;29.70;48.10;;;;;;5051473;28;20208;-70
2023/07/08 09:49:23;;;;;;;34.73;7.63;;;29.80;48.20;;;;;;5051289;28;20204;-72
2023/07/08 09:51:51;;;;;;;29.07;7.23;;;29.80;48.20;;;;;;5051154;28;20200;-71
2023/07/08 09:54:19;;;;;;;33.23;7.10;;;29.80;48.10;;;;;;5051274;28;20281;-70
2023/07/08 09:56:56;;;;;;;21.27;6.17;;;29.80;48.10;;;;;;5046647;28;20250;-70
2023/07/08 09:59:30;;;;;;;25.27;6.43;;;29.80;48.20;;;;;;5051260;28;20620;-69
2023/07/08 10:01:57;;;;;;;28.60;6.90;;;29.80;48.20;;;;;;5051366;28;20208;-71
2023/07/08 10:04:25;;;;;;;30.23;6.93;;;29.90;48.20;;;;;;5051236;28;20208;-70
2023/07/08 10:06:55;;;;;;;27.90;6.80;;;29.90;48.20;;;;;;5050671;28;20196;-70
2023/07/08 10:09:25;;;;;;;28.03;6.87;;;29.90;48.20;;;;;;5050757;28;20204;-70
2023/07/08 10:11:58;;;;;;;32.03;7.00;;;29.90;48.20;;;;;;5051372;28;20204;-72
2023/07/08 10:14:28;;;;;;;30.07;6.83;;;29.90;48.20;;;;;;5050735;28;20232;-71
2023/07/08 10:16:56;;;;;;;26.80;7.23;;;29.90;48.20;;;;;;5051148;28;20215;-70
2023/07/08 10:19:23;;;;;;;40.13;8.17;;;29.90;48.20;;;;;;5050448;28;20200;-73
2023/07/08 10:22:11;;;;;;;25.53;6.40;;;29.90;48.20;;;;;;5050606;28;20283;-70
2023/07/08 10:24:58;;;;;;;31.57;7.13;;;30.00;48.30;;;;;;5050966;28;20227;-70
2023/07/08 10:27:34;;;;;;;36.17;8.27;;;30.00;48.30;;;;;;5047027;28;20209;-72
2023/07/08 10:30:15;;;;;;;25.83;6.23;;;30.00;48.20;;;;;;5049544;28;20203;-70
2023/07/08 10:32:56;;;;;;;24.43;6.23;;;30.00;48.30;;;;;;5050755;28;20207;-70
2023/07/08 10:35:28;;;;;;;29.97;7.00;;;30.00;48.30;;;;;;5050457;28;20184;-73
2023/07/08 10:38:10;;;;;;;22.63;6.53;;;30.00;48.30;;;;;;5050235;28;20825;-70
2023/07/08 10:40:48;;;;;;;29.20;6.73;;;30.10;48.40;;;;;;5050645;28;20556;-70
2023/07/08 10:43:42;;;;;;;28.63;6.47;;;30.00;48.30;;;;;;5050529;28;20866;-70
2023/07/08 10:46:25;;;;;;;32.60;7.27;;;30.10;48.40;;;;;;5050170;28;20199;-70
2023/07/08 10:49:06;;;;;;;29.90;6.73;;;30.10;48.40;;;;;;5050573;28;20204;-70
2023/07/08 10:51:41;;;;;;;30.40;6.83;;;30.10;48.40;;;;;;5049965;28;20202;-69
2023/07/08 10:54:38;;;;;;;43.37;8.00;;;30.10;48.40;;;;;;5048354;28;20231;-69
2023/07/08 10:57:15;;;;;;;24.97;6.23;;;30.20;48.50;;;;;;5030795;28;20201;-71
2023/07/08 10:59:49;;;;;;;22.80;6.33;;;30.20;48.50;;;;;;5030514;28;20195;-72
2023/07/08 11:02:34;;;;;;;29.77;6.87;;;30.20;48.50;;;;;;5030365;28;20633;-70
2023/07/08 11:05:15;;;;;;;20.85;6.22;;;30.20;48.50;;;;;;5029951;28;20235;-70
2023/07/08 11:07:46;;;;;;;21.70;5.97;;;30.20;48.50;;;;;;5030160;28;20558;-70
2023/07/08 11:10:18;;;;;;;26.10;6.90;;;30.30;48.50;;;;;;5029864;28;20204;-70
2023/07/08 11:12:48;;;;;;;23.70;6.63;;;30.30;48.50;;;;;;5030099;28;20316;-70
2023/07/08 11:15:20;;;;;;;27.40;6.53;;;30.30;48.60;;;;;;5030139;28;20236;-71
2023/07/08 11:17:53;;;;;;;25.47;6.33;;;30.30;48.60;;;;;;5030216;28;20193;-70
2023/07/08 11:20:25;;;;;;;46.70;8.33;;;30.30;48.60;;;;;;5027997;28;20203;-71
2023/07/08 11:23:04;;;;;;;29.07;6.77;;;30.40;48.60;;;;;;5037648;28;20208;-72
2023/07/08 11:25:34;;;;;;;21.50;6.47;;;30.40;48.60;;;;;;5037591;28;20769;-70
2023/07/08 11:28:05;;;;;;;21.23;6.40;;;30.50;48.60;;;;;;5047897;28;20560;-68
2023/07/08 11:30:39;;;;;;;114.13;51.87;;;30.40;48.60;;;;;;5029321;28;20210;-65
2023/07/08 11:33:12;;;;;;;221.60;86.60;;;30.50;48.70;;;;;;5024660;28;20744;-65
2023/07/08 11:35:42;;;;;;;189.70;65.40;;;30.50;48.70;;;;;;5044752;28;20625;-66
2023/07/08 11:38:15;;;;;;;127.93;48.53;;;30.60;48.90;;;;;;5028773;28;20204;-66
2023/07/08 11:40:55;;;;;;;88.20;35.80;;;30.50;48.90;;;;;;5029674;28;20212;-66
2023/07/08 11:43:25;;;;;;;60.63;24.27;;;30.60;49.10;;;;;;5039264;28;20199;-67
2023/07/08 11:45:56;;;;;;;45.50;18.57;;;30.60;49.00;;;;;;5046491;28;20196;-66
2023/07/08 11:48:27;;;;;;;37.40;14.23;;;30.60;49.10;;;;;;5041371;28;20195;-67
2023/07/08 11:50:56;;;;;;;36.10;12.07;;;30.70;49.20;;;;;;5029525;28;20551;-70
2023/07/08 11:53:47;;;;;;;38.33;11.80;;;30.70;49.20;;;;;;5027973;28;20215;-69
2023/07/08 11:56:24;;;;;;;31.85;9.80;;;30.80;49.50;;;;;;5009755;28;20563;-66
2023/07/08 11:58:59;;;;;;;31.77;9.67;;;30.80;49.40;;;;;;5032577;28;20196;-76
2023/07/08 12:01:29;;;;;;;39.42;10.20;;;30.80;49.40;;;;;;5049122;28;20199;-72
2023/07/08 12:04:00;;;;;;;52.38;11.93;;;30.90;49.40;;;;;;5030811;28;20204;-78
2023/07/08 12:06:44;;;;;;;28.88;9.70;;;30.90;49.30;;;;;;5028695;28;20209;-72
2023/07/08 12:09:17;;;;;;;50.85;10.75;;;30.90;49.40;;;;;;5022078;28;20236;-68
2023/07/08 12:11:47;;;;;;;27.90;9.10;;;31.00;49.50;;;;;;5027799;28;20204;-72
2023/07/08 12:14:15;;;;;;;34.42;9.23;;;31.00;49.40;;;;;;5022725;28;20240;-69
2023/07/08 12:16:43;;;;;;;46.60;10.35;;;31.10;49.40;;;;;;5028917;28;20220;-70
2023/07/08 12:19:17;;;;;;;27.90;8.00;;;31.10;49.30;;;;;;5025572;28;20201;-68
2023/07/08 12:21:43;;;;;;;31.35;8.50;;;31.20;49.30;;;;;;5047683;28;20728;-68
2023/07/08 12:24:13;;;;;;;38.70;9.45;;;31.20;49.20;;;;;;5048372;28;20204;-67
2023/07/08 12:26:41;;;;;;;34.93;8.40;;;31.30;49.30;;;;;;5048764;28;20197;-67
2023/07/08 12:29:12;;;;;;;34.30;8.57;;;31.20;49.20;;;;;;5037546;28;20287;-71
2023/07/08 12:31:40;;;;;;;27.17;8.27;;;31.30;49.20;;;;;;5048313;28;20224;-80
2023/07/08 12:34:13;;;;;;;38.10;8.80;;;31.30;49.10;;;;;;5049051;28;20699;-77
2023/07/08 12:36:40;;;;;;;33.78;8.70;;;31.30;49.10;;;;;;5047270;28;20208;-69
2023/07/08 12:39:11;;;;;;;43.95;9.10;;;31.30;49.10;;;;;;5043475;28;20211;-69
2023/07/08 12:41:39;;;;;;;33.17;8.52;;;31.40;49.10;;;;;;5027861;28;20201;-69
2023/07/08 12:44:15;;;;;;;28.98;8.35;;;31.40;49.10;;;;;;5044655;28;20613;-69
2023/07/08 12:46:42;;;;;;;26.50;7.55;;;31.40;49.10;;;;;;5044387;28;20210;-67
2023/07/08 12:49:09;;;;;;;27.90;7.63;;;31.40;49.00;;;;;;5035522;28;20723;-68